Terminal Aerodrome Forecast
Issued by NWS Quad Cities IA IL

Home | Current Version | Previous Version | Text Only | Print | Product List | Glossary On
Versions: 1 2 3 4 5 6 7 8 9 10 11 12 13 14 15 16 17 18 19 20 21 22 23 24 25 26 27 28 29 30
000
FTUS43 KDVN 311120
TAFMLI
TAF
KMLI 311120Z 3112/0112 09003KT 4SM BR SKC
      TEMPO 3112/3113 3/4SM BR SKC
     FM311600 17007KT P6SM SCT035
     FM011000 18003KT 4SM BR SKC=

USA.gov is the U.S. government's official web portal to all federal, state and local government web resources and services.